Flight Track Log - Related Links

Times and Time Zones

All times are in EDT time to prevent confusion due to time zone crossing. See the AAL832 flight status page for this flight to view local times or setup timezone preferences in your user account.

Time Position Orientation Groundspeed Altitude Reporting Facility
EDT Latitude Longitude Course Direction KTS MPH feet Rate Location/Type
Fri 02:17:54 PM 33.9333 -118.4500 90° East 187 215 1,900  Level Southern California TRACON
Fri 02:18:22 PM 33.9172 -118.4836 240° Southwest 222 255 3,000 2,533 Climbing Los Angeles Center
Fri 02:19:00 PM 33.8292 -118.1458 140° Southeast  Level FlightAware Approximate
Fri 02:19:24 PM 33.8742 -118.5447 230° Southwest 242 278 5,700  Level Los Angeles Center
Fri 02:20:00 PM 33.7667 -118.0275 90° East  Level FlightAware Approximate
Fri 02:20:26 PM 33.8078 -118.5472 182° South 262 302 8,200  Level Los Angeles Center
Fri 02:21:00 PM 33.7667 -117.8817 90° East  Level FlightAware Approximate
Fri 02:21:28 PM 33.7125 -118.5392 176° South 291 335 11,100  Level Los Angeles Center
Fri 02:22:00 PM 33.7472 -117.7389 97° East  Level FlightAware Approximate
Fri 02:22:31 PM 33.6328 -118.4944 155° Southeast 337 388 13,300  Level Los Angeles Center
Fri 02:23:00 PM 33.7333 -117.5941 90° East  Level FlightAware Approximate
Fri 02:23:33 PM 33.6164 -118.3819 100° East 351 404 15,300  Level Los Angeles Center
Fri 02:24:35 PM 33.6208 -118.2514 88° East 394 453 16,700 1,839 Climbing Los Angeles Center
Fri 02:25:37 PM 33.6197 -118.0806 90° East 432 497 19,100 2,129 Climbing Los Angeles Center
Fri 02:26:39 PM 33.6206 -117.9294 90° East 453 521 21,100 1,839 Climbing Los Angeles Center
Fri 02:27:41 PM 33.6122 -117.7750 94° East 465 535 22,900 1,694 Climbing Los Angeles Center
Fri 02:28:43 PM 33.6014 -117.6139 95° East 483 556 24,600 1,548 Climbing Los Angeles Center
Fri 02:29:45 PM 33.5914 -117.4492 94° East 496 571 26,100 1,597 Climbing Los Angeles Center
Fri 02:30:47 PM 33.5800 -117.2458 94° East 511 588 27,900 1,742 Climbing Los Angeles Center
Fri 02:31:49 PM 33.5844 -117.0878 88° East 508 585 29,700 1,500 Climbing Los Angeles Center
Fri 02:32:51 PM 33.5958 -116.9089 86° East 509 586 31,000 624 Climbing Los Angeles Center
Fri 02:33:54 PM 33.6033 -116.7492 87° East 507 583 31,000 720 Level Los Angeles Center
Fri 02:34:56 PM 33.6117 -116.5439 87° East 511 588 32,500 1,452 Climbing Los Angeles Center
Fri 02:35:58 PM 33.6364 -116.3789 80° East 506 582 34,000 1,403 Climbing Los Angeles Center
Fri 02:37:00 PM 33.6836 -116.2225 70° East 500 575 35,400 919 Climbing Los Angeles Center
Fri 02:38:02 PM 33.7308 -116.0619 70° East 507 583 35,900 726 Climbing Los Angeles Center
Fri 02:39:04 PM 33.7792 -115.8983 70° East 517 595 36,900 532 Climbing Los Angeles Center
Fri 02:40:06 PM 33.8181 -115.7686 70° East 516 594 37,000 48 Climbing Los Angeles Center
Fri 02:41:08 PM 33.8850 -115.5392 71° East 519 597 37,000  Level Los Angeles Center
Fri 02:42:10 PM 33.9328 -115.3769 70° East 515 593 37,000  Level Los Angeles Center
Fri 02:43:12 PM 33.9797 -115.2119 71° East 519 597 37,000  Level Los Angeles Center
Fri 02:44:26 PM 34.0269 -115.0503 71° East 515 593 37,000  Level Los Angeles Center
Fri 02:45:29 PM 34.0842 -114.8561 70° East 512 589 37,000  Level Los Angeles Center
Fri 02:46:33 PM 34.1303 -114.6944 71° East 511 588 37,000  Level Los Angeles Center
Fri 02:47:33 PM 34.1903 -114.5014 69° East 512 589 37,000  Level Los Angeles Center
Fri 02:48:35 PM 34.2353 -114.3400 71° East 512 589 37,000  Level Los Angeles Center
Fri 02:49:17 PM 34.2650 -114.2339 71° East 507 583 37,000  Level Albuquerque Center
Fri 02:50:19 PM 34.3106 -114.0747 71° East 505 581 37,000  Level Albuquerque Center
Fri 02:51:22 PM 34.3564 -113.9156 71° East 503 579 37,000  Level Albuquerque Center
Fri 02:52:23 PM 34.4003 -113.7583 71° East 500 575 37,000  Level Albuquerque Center
Fri 02:53:25 PM 34.4506 -113.5847 71° East 504 580 37,000  Level Albuquerque Center
Fri 02:54:26 PM 34.4933 -113.4258 72° East 501 577 37,000  Level Albuquerque Center
Fri 02:55:28 PM 34.5364 -113.2675 72° East 501 577 37,000  Level Albuquerque Center
Fri 02:56:30 PM 34.5889 -113.0772 71° East 500 575 37,000  Level Albuquerque Center
Fri 02:57:32 PM 34.6322 -112.9194 72° East 500 575 37,000  Level Albuquerque Center
Fri 02:58:34 PM 34.6744 -112.7608 72° East 500 575 37,000  Level Albuquerque Center
Fri 02:59:35 PM 34.7161 -112.6028 72° East 498 573 37,000  Level Albuquerque Center
Fri 03:00:37 PM 34.7578 -112.4453 72° East 497 572 37,000  Level Albuquerque Center
Fri 03:01:39 PM 34.8064 -112.2556 73° East 495 570 37,000  Level Albuquerque Center
Fri 03:02:41 PM 34.8469 -112.0989 72° East 492 566 37,000  Level Albuquerque Center
Fri 03:03:43 PM 34.8881 -111.9433 72° East 489 563 37,000  Level Albuquerque Center
Fri 03:04:45 PM 34.9272 -111.7881 73° East 484 557 37,000  Level Albuquerque Center
Fri 03:05:47 PM 34.9678 -111.6333 72° East 484 557 37,000  Level Albuquerque Center
Fri 03:06:49 PM 35.0156 -111.4467 73° East 484 557 37,000  Level Albuquerque Center
Fri 03:07:50 PM 35.0550 -111.2903 73° East 486 559 37,000  Level Albuquerque Center
Fri 03:08:52 PM 35.0953 -111.1344 72° East 485 558 37,000  Level Albuquerque Center
Fri 03:09:54 PM 35.1367 -110.9728 74° East 481 554 37,000  Level Albuquerque Center
Fri 03:10:00 PM 35.1327 -110.9714 74° East  Level FlightAware Approximate
Fri 03:10:56 PM 35.1814 -110.7994 72° East 479 551 37,000  Level Albuquerque Center
Fri 03:11:58 PM 35.2161 -110.6503 74° East 477 549 37,000  Level Albuquerque Center
Fri 03:13:00 PM 35.2594 -110.4767 73° East 478 550 37,000  Level Albuquerque Center
Fri 03:14:02 PM 35.2978 -110.3300 72° East 475 547 37,000  Level Albuquerque Center
Fri 03:15:03 PM 35.3339 -110.1817 73° East 475 547 37,000  Level Albuquerque Center
Fri 03:16:05 PM 35.3764 -110.0086 73° East 476 548 37,000  Level Albuquerque Center
Fri 03:17:07 PM 35.4108 -109.8594 74° East 476 548 37,000  Level Albuquerque Center
Fri 03:18:09 PM 35.4528 -109.6881 73° East 472 543 37,000  Level Albuquerque Center
Fri 03:19:11 PM 35.4883 -109.5389 74° East 475 547 37,000  Level Albuquerque Center
Fri 03:20:12 PM 35.5275 -109.3658 74° East 474 545 37,000  Level Albuquerque Center
Fri 03:21:14 PM 35.5614 -109.2181 74° East 472 543 37,000  Level Albuquerque Center
Fri 03:22:16 PM 35.6014 -109.0472 74° East 469 540 37,000  Level Albuquerque Center
Fri 03:23:18 PM 35.6347 -108.9019 74° East 466 536 37,000  Level Albuquerque Center
Fri 03:24:20 PM 35.6744 -108.7317 74° East 466 536 37,000  Level Albuquerque Center
Fri 03:25:22 PM 35.7078 -108.5858 74° East 467 537 37,000  Level Albuquerque Center
Fri 03:26:23 PM 35.7469 -108.4153 74° East 467 537 37,000  Level Albuquerque Center
Fri 03:27:25 PM 35.7797 -108.2694 74° East 465 535 37,000  Level Albuquerque Center
Fri 03:28:27 PM 35.8178 -108.0989 75° East 464 534 37,000  Level Albuquerque Center
Fri 03:29:29 PM 35.8506 -107.9517 75° East 466 536 37,000  Level Albuquerque Center
Fri 03:30:31 PM 35.8839 -107.8050 74° East 465 535 37,000  Level Albuquerque Center
Fri 03:31:33 PM 35.9217 -107.6347 75° East 462 532 37,000  Level Albuquerque Center
Fri 03:32:34 PM 35.9542 -107.4864 75° East 465 535 37,000  Level Albuquerque Center
Fri 03:33:36 PM 35.9914 -107.3161 75° East 463 533 37,000  Level Albuquerque Center
Fri 03:34:38 PM 36.0222 -107.1750 75° East 464 534 37,000  Level Albuquerque Center
Fri 03:35:40 PM 36.0561 -107.0208 75° East 464 534 37,000  Level Albuquerque Center
Fri 03:36:42 PM 36.0894 -106.8653 75° East 466 536 37,000  Level Albuquerque Center
Fri 03:37:43 PM 36.1289 -106.6797 75° East 464 534 37,000  Level Albuquerque Center
Fri 03:38:45 PM 36.1619 -106.5233 75° East 467 537 37,000  Level Albuquerque Center
Fri 03:39:47 PM 36.1972 -106.3539 75° East 467 537 37,000  Level Albuquerque Center
Fri 03:40:49 PM 36.2294 -106.2061 75° East 466 536 37,000  Level Albuquerque Center
Fri 03:41:51 PM 36.2586 -106.0564 76° East 467 537 37,000  Level Albuquerque Center
Fri 03:42:53 PM 36.2903 -105.9017 76° East 464 534 37,000  Level Albuquerque Center
Fri 03:43:54 PM 36.3200 -105.7414 77° East 473 544 37,000  Level Albuquerque Center
Fri 03:44:56 PM 36.3525 -105.5850 75° East 470 541 37,000  Level Albuquerque Center
Fri 03:45:58 PM 36.3894 -105.3928 77° East 466 536 37,000  Level Albuquerque Center
Fri 03:47:00 PM 36.4206 -105.2344 76° East 467 537 37,000  Level Albuquerque Center
Fri 03:48:02 PM 36.4511 -105.0778 76° East 464 534 37,000  Level Albuquerque Center
Fri 03:49:04 PM 36.4817 -104.9200 76° East 464 534 37,000  Level Albuquerque Center
Fri 03:50:05 PM 36.5111 -104.7614 77° East 466 536 37,000  Level Albuquerque Center
Fri 03:51:07 PM 36.5397 -104.6047 77° East 462 532 37,000  Level Albuquerque Center
Fri 03:52:09 PM 36.5786 -104.4497 73° East 464 534 37,000  Level Albuquerque Center
Fri 03:53:11 PM 36.6331 -104.3094 64° Northeast 452 520 37,000  Level Albuquerque Center
Fri 03:54:13 PM 36.6933 -104.1536 64° Northeast 444 511 37,000  Level Albuquerque Center
Fri 03:55:14 PM 36.7442 -104.0211 64° Northeast 444 511 37,000  Level Albuquerque Center
Fri 03:56:16 PM 36.8036 -103.8653 64° Northeast 445 512 37,000  Level Albuquerque Center
Fri 03:57:18 PM 36.8533 -103.7342 65° Northeast 444 511 37,000  Level Albuquerque Center
Fri 03:58:20 PM 36.9117 -103.5772 65° Northeast 446 513 37,000  Level Albuquerque Center
Fri 03:59:21 PM 36.9614 -103.4425 65° Northeast 447 514 37,000  Level Albuquerque Center
Fri 04:00:23 PM 37.0189 -103.2878 65° Northeast 444 511 37,000  Level Albuquerque Center
Fri 04:01:25 PM 37.0678 -103.1533 65° Northeast 445 512 37,000  Level Albuquerque Center
Fri 04:02:27 PM 37.1169 -103.0178 66° East 447 514 37,000  Level Albuquerque Center
Fri 04:03:29 PM 37.1750 -102.8586 65° Northeast 449 517 37,000  Level Albuquerque Center
Fri 04:04:30 PM 37.2242 -102.7219 66° East 449 517 37,000  Level Albuquerque Center
Fri 04:05:32 PM 37.2828 -102.5639 65° Northeast 449 517 37,000  Level Albuquerque Center
Fri 04:06:34 PM 37.3317 -102.4278 66° East 447 514 37,000  Level Albuquerque Center
Fri 04:07:36 PM 37.3883 -102.2683 66° East 447 514 37,000  Level Albuquerque Center
Fri 04:08:37 PM 37.4392 -102.1236 66° East 445 512 37,000  Level Albuquerque Center
Fri 04:09:39 PM 37.4872 -101.9886 66° East 443 510 37,000  Level Albuquerque Center
Fri 04:10:41 PM 37.5431 -101.8303 66° East 443 510 37,000  Level Albuquerque Center
Fri 04:11:51 PM 37.5978 -101.6686 67° East 447 514 37,000  Level Kansas City Center
Fri 04:12:53 PM 37.6472 -101.5297 66° East 451 519 37,000  Level Kansas City Center
Fri 04:13:55 PM 37.7047 -101.3642 66° East 458 527 37,000  Level Kansas City Center
Fri 04:14:57 PM 37.7553 -101.2233 66° East 459 528 37,000  Level Kansas City Center
Fri 04:15:59 PM 37.8142 -101.0550 66° East 462 532 37,000  Level Kansas City Center
Fri 04:17:01 PM 37.8644 -100.9086 66° East 465 535 37,000  Level Kansas City Center
Fri 04:18:03 PM 37.9156 -100.7611 66° East 470 541 37,000  Level Kansas City Center
Fri 04:19:05 PM 37.9733 -100.5906 67° East 470 541 37,000  Level Kansas City Center
Fri 04:20:07 PM 38.0214 -100.4458 67° East 467 537 37,000  Level Kansas City Center
Fri 04:21:09 PM 38.0781 -100.2747 67° East 467 537 37,000  Level Kansas City Center
Fri 04:22:11 PM 38.1258 -100.1275 68° East 470 541 37,000  Level Kansas City Center
Fri 04:23:13 PM 38.1833 -99.9581 67° East 469 540 37,000  Level Kansas City Center
Fri 04:24:15 PM 38.2317 -99.8111 67° East 469 540 37,000  Level Kansas City Center
Fri 04:25:17 PM 38.2864 -99.6397 68° East 468 539 37,000  Level Kansas City Center
Fri 04:26:19 PM 38.3353 -99.4936 67° East 467 537 37,000  Level Kansas City Center
Fri 04:27:21 PM 38.3850 -99.3406 67° East 467 537 37,000  Level Kansas City Center
Fri 04:28:23 PM 38.4331 -99.1889 68° East 464 534 37,000  Level Kansas City Center
Fri 04:29:25 PM 38.4825 -99.0364 67° East 463 533 37,000  Level Kansas City Center
Fri 04:30:27 PM 38.5311 -98.8847 68° East 462 532 37,000  Level Kansas City Center
Fri 04:31:29 PM 38.5922 -98.6981 67° East 471 542 37,000  Level Kansas City Center
Fri 04:32:31 PM 38.6381 -98.5456 69° East 460 529 37,000  Level Kansas City Center
Fri 04:33:33 PM 38.6869 -98.3906 68° East 467 537 37,000  Level Kansas City Center
Fri 04:34:35 PM 38.7356 -98.2353 68° East 468 539 37,000  Level Kansas City Center
Fri 04:35:37 PM 38.7842 -98.0794 68° East 469 540 37,000  Level Kansas City Center
Fri 04:36:39 PM 38.8333 -97.9206 68° East 476 548 37,000 629 Level Kansas City Center
Fri 04:37:41 PM 38.8850 -97.7497 69° East 469 540 38,300 968 Climbing Kansas City Center
Fri 04:38:43 PM 38.9383 -97.5764 68° East 466 536 39,000 339 Climbing Kansas City Center
Fri 04:39:45 PM 38.9806 -97.4211 71° East 478 550 39,000  Level Kansas City Center
Fri 04:40:47 PM 39.0267 -97.2706 68° East 474 545 39,000  Level Kansas City Center
Fri 04:41:49 PM 39.0775 -97.0933 70° East 472 543 39,000  Level Kansas City Center
Fri 04:42:51 PM 39.1219 -96.9419 69° East 472 543 39,000  Level Kansas City Center
Fri 04:43:53 PM 39.1728 -96.7656 70° East 471 542 39,000  Level Kansas City Center
Fri 04:44:55 PM 39.2147 -96.6142 70° East 469 540 39,000  Level Kansas City Center
Fri 04:45:58 PM 39.2664 -96.4361 69° East 468 539 39,000  Level Kansas City Center
Fri 04:47:00 PM 39.3117 -96.2772 70° East 472 543 39,000  Level Kansas City Center
Fri 04:48:02 PM 39.3569 -96.1103 71° East 467 537 39,000  Level Kansas City Center
Fri 04:49:04 PM 39.3994 -95.9583 70° East 468 539 39,000  Level Kansas City Center
Fri 04:50:06 PM 39.4497 -95.7797 70° East 472 543 39,000  Level Kansas City Center
Fri 04:51:08 PM 39.4919 -95.6256 70° East 471 542 39,000  Level Kansas City Center
Fri 04:52:10 PM 39.5386 -95.4511 71° East 468 539 39,000  Level Kansas City Center
Fri 04:53:12 PM 39.5817 -95.2936 70° East 466 536 39,000  Level Kansas City Center
Fri 04:54:14 PM 39.6231 -95.1400 71° East 468 539 39,000  Level Kansas City Center
Fri 04:55:16 PM 39.6714 -94.9625 70° East 464 534 39,000  Level Kansas City Center
Fri 04:56:18 PM 39.7117 -94.8086 71° East 468 539 39,000  Level Kansas City Center
Fri 04:57:20 PM 39.7519 -94.6569 71° East 464 534 39,000  Level Kansas City Center
Fri 04:58:22 PM 39.7989 -94.4781 71° East 467 537 39,000  Level Kansas City Center
Fri 04:59:24 PM 39.8381 -94.3272 71° East 461 531 39,000  Level Kansas City Center
Fri 05:00:26 PM 39.8853 -94.1494 71° East 465 535 39,000  Level Kansas City Center
Fri 05:01:28 PM 39.9256 -93.9792 73° East 471 542 39,000  Level Kansas City Center
Fri 05:02:30 PM 39.9669 -93.8219 71° East 465 535 39,000  Level Kansas City Center
Fri 05:03:32 PM 40.0069 -93.6622 72° East 466 536 39,000  Level Kansas City Center
Fri 05:04:34 PM 40.0475 -93.5036 71° East 464 534 39,000  Level Kansas City Center
Fri 05:05:36 PM 40.0867 -93.3447 72° East 464 534 39,000 -48 Level Kansas City Center
Fri 05:06:38 PM 40.1361 -93.1539 71° East 464 534 38,900 -484 Descending Kansas City Center
Fri 05:07:40 PM 40.1733 -93.0003 72° East 460 529 38,000 -919 Descending Kansas City Center
Fri 05:08:42 PM 40.2178 -92.8225 72° East 459 528 37,000 -484 Descending Kansas City Center
Fri 05:09:44 PM 40.2539 -92.6756 72° East 448 516 37,000  Level Kansas City Center
Fri 05:10:46 PM 40.2961 -92.5078 72° East 439 505 37,000 -97 Level Kansas City Center
Fri 05:11:48 PM 40.3289 -92.3675 73° East 440 506 36,800 -823 Descending Kansas City Center
Fri 05:12:50 PM 40.3644 -92.2150 73° East 441 507 35,300 -1,210 Descending Kansas City Center
Fri 05:13:52 PM 40.4014 -92.0631 72° East 440 506 34,300 -823 Descending Kansas City Center
Fri 05:14:54 PM 40.4436 -91.8792 73° East 441 507 33,600 -629 Descending Kansas City Center
Fri 05:15:56 PM 40.4797 -91.7278 73° East 438 504 33,000 -298 Descending Kansas City Center
Fri 05:16:55 PM 40.5147 -91.5764 73° East 438 504 33,000  Level Chicago Center
Fri 05:17:57 PM 40.5506 -91.4211 73° East 443 510 33,000  Level Chicago Center
Fri 05:18:59 PM 40.6000 -91.2703 67° East 449 517 33,000  Level Chicago Center
Fri 05:20:01 PM 40.6525 -91.1186 65° Northeast 454 522 33,000 -242 Level Chicago Center
Fri 05:21:03 PM 40.7044 -90.9656 66° East 456 525 32,500 -823 Descending Chicago Center
Fri 05:22:05 PM 40.7678 -90.7789 66° East 462 532 31,300 -1,065 Descending Chicago Center
Fri 05:23:07 PM 40.8200 -90.6214 66° East 467 537 30,300 -1,065 Descending Chicago Center
Fri 05:24:09 PM 40.8722 -90.4625 66° East 468 539 29,100 -1,161 Descending Chicago Center
Fri 05:25:11 PM 40.9272 -90.2989 66° East 479 551 27,900 -1,113 Descending Chicago Center
Fri 05:26:13 PM 40.9783 -90.1442 66° East 485 558 26,800 -1,113 Descending Chicago Center
Fri 05:27:15 PM 41.0350 -89.9731 66° East 472 543 25,600 -1,065 Descending Chicago Center
Fri 05:28:17 PM 41.0872 -89.8150 66° East 465 535 24,600 -774 Descending Chicago Center
Fri 05:29:19 PM 41.1389 -89.6578 66° East 463 533 24,000 -1,258 Descending Chicago Center
Fri 05:30:21 PM 41.1928 -89.5089 64° Northeast 451 519 22,000 -1,984 Descending Chicago Center
Fri 05:31:23 PM 41.2628 -89.3400 61° Northeast 436 502 19,900 -1,839 Descending Chicago Center
Fri 05:32:25 PM 41.3142 -89.2114 62° Northeast 402 463 18,200 -2,177 Descending Chicago Center
Fri 05:33:27 PM 41.3650 -89.0822 62° Northeast 379 436 15,400 -2,226 Descending Chicago Center
Fri 05:34:29 PM 41.4119 -88.9631 62° Northeast 367 422 13,600 -1,935 Descending Chicago Center
Fri 05:35:31 PM 41.4564 -88.8528 62° Northeast 344 396 11,400 -1,258 Descending Chicago Center
Fri 05:36:33 PM 41.4994 -88.7425 62° Northeast 338 389 11,000 -145 Descending Chicago Center
Fri 05:37:35 PM 41.5361 -88.6492 62° Northeast 289 333 11,100 48 Climbing Chicago Center
Fri 05:38:37 PM 41.5767 -88.5531 61° Northeast 253 291 11,100 -677 Level Chicago Center
Fri 05:39:39 PM 41.6236 -88.4814 49° Northeast 256 295 9,700 -1,258 Descending Chicago Center
Fri 05:40:41 PM 41.6689 -88.4100 50° Northeast 254 292 8,500 -823 Descending Chicago Center
Fri 05:41:43 PM 41.7133 -88.3417 49° Northeast 246 283 8,000 -242 Descending Chicago Center
Fri 05:42:45 PM 41.7789 -88.3331 North 235 270 8,000  Level Chicago Center
Fri 05:43:47 PM 41.8436 -88.3267 North 233 268 8,000  Level Chicago Center
Fri 05:44:49 PM 41.8928 -88.3800 321° Northwest 234 269 8,000  Level Chicago Center
Fri 05:45:51 PM 41.8906 -88.4569 268° West 212 244 8,000 -242 Level Chicago Center
Fri 05:46:53 PM 41.8869 -88.5344 266° West 210 242 7,500 -871 Descending Chicago Center
Fri 05:47:55 PM 41.9331 -88.5717 329° Northwest 222 255 6,200 -774 Descending Chicago Center
Fri 05:48:57 PM 41.9669 -88.5136 52° Northeast 204 235 5,900 -435 Descending Chicago Center
Fri 05:49:59 PM 41.9669 -88.4450 90° East 188 216 5,300 -435 Descending Chicago Center
Fri 05:51:01 PM 41.9669 -88.3644 90° East 184 212 5,000 -145 Descending Chicago Center
Fri 05:52:03 PM 41.9667 -88.3003 90° East 178 205 5,000  Level Chicago Center
Fri 05:53:05 PM 41.9672 -88.2325 89° East 180 207 5,000 -435 Level Chicago Center
Fri 05:54:07 PM 41.9672 -88.1650 90° East 181 208 4,100 -871 Descending Chicago Center

Login

Don't have an account? Register now (free) for customized features, flight alerts, and more!